sensor_id;sensor_type;location;lat;lon;timestamp;temperature;humidity
29341;DHT22;16337;59.536;13.468;2023-03-08T00:01:13;-5.00;99.90
29341;DHT22;16337;59.536;13.468;2023-03-08T00:03:40;-5.00;99.90
29341;DHT22;16337;59.536;13.468;2023-03-08T00:06:11;-5.00;99.90
29341;DHT22;16337;59.536;13.468;2023-03-08T00:08:37;-5.00;99.90
29341;DHT22;16337;59.536;13.468;2023-03-08T00:11:06;-5.00;99.90
29341;DHT22;16337;59.536;13.468;2023-03-08T00:13:33;-5.00;99.90
29341;DHT22;16337;59.536;13.468;2023-03-08T00:16:03;-5.10;99.90
29341;DHT22;16337;59.536;13.468;2023-03-08T00:18:29;-5.10;99.90
29341;DHT22;16337;59.536;13.468;2023-03-08T00:21:09;-5.10;99.90
29341;DHT22;16337;59.536;13.468;2023-03-08T00:23:38;-5.10;99.90
29341;DHT22;16337;59.536;13.468;2023-03-08T00:26:04;-5.10;99.90
29341;DHT22;16337;59.536;13.468;2023-03-08T00:28:30;-5.20;99.90
29341;DHT22;16337;59.536;13.468;2023-03-08T00:31:15;-5.20;99.90
29341;DHT22;16337;59.536;13.468;2023-03-08T00:33:43;-5.20;99.90
29341;DHT22;16337;59.536;13.468;2023-03-08T00:36:15;-5.20;99.90
29341;DHT22;16337;59.536;13.468;2023-03-08T00:38:41;-5.20;99.90
29341;DHT22;16337;59.536;13.468;2023-03-08T00:41:07;-5.20;99.90
29341;DHT22;16337;59.536;13.468;2023-03-08T00:43:34;-5.20;99.90
29341;DHT22;16337;59.536;13.468;2023-03-08T00:46:00;-5.30;99.90
29341;DHT22;16337;59.536;13.468;2023-03-08T00:48:26;-5.30;99.90
29341;DHT22;16337;59.536;13.468;2023-03-08T00:50:52;-5.30;99.90
29341;DHT22;16337;59.536;13.468;2023-03-08T00:53:18;-5.30;99.90
29341;DHT22;16337;59.536;13.468;2023-03-08T00:55:51;-5.40;99.90
29341;DHT22;16337;59.536;13.468;2023-03-08T00:58:17;-5.40;99.90
29341;DHT22;16337;59.536;13.468;2023-03-08T01:00:43;-5.40;99.90
29341;DHT22;16337;59.536;13.468;2023-03-08T01:03:09;-5.50;99.90
29341;DHT22;16337;59.536;13.468;2023-03-08T01:05:43;-5.50;99.90
29341;DHT22;16337;59.536;13.468;2023-03-08T01:08:09;-5.50;99.90
29341;DHT22;16337;59.536;13.468;2023-03-08T01:10:35;-5.60;99.90
29341;DHT22;16337;59.536;13.468;2023-03-08T01:13:01;-5.60;99.90
29341;DHT22;16337;59.536;13.468;2023-03-08T01:15:27;-5.60;99.90
29341;DHT22;16337;59.536;13.468;2023-03-08T01:17:53;-5.60;99.90
29341;DHT22;16337;59.536;13.468;2023-03-08T01:20:19;-5.60;99.90
29341;DHT22;16337;59.536;13.468;2023-03-08T01:22:44;-5.70;99.90
29341;DHT22;16337;59.536;13.468;2023-03-08T01:25:13;-5.70;99.90
29341;DHT22;16337;59.536;13.468;2023-03-08T01:27:38;-5.70;99.90
29341;DHT22;16337;59.536;13.468;2023-03-08T01:30:05;-5.80;99.90
29341;DHT22;16337;59.536;13.468;2023-03-08T01:32:30;-5.80;99.90
29341;DHT22;16337;59.536;13.468;2023-03-08T01:34:56;-5.80;99.90
29341;DHT22;16337;59.536;13.468;2023-03-08T01:37:27;-5.80;99.90
29341;DHT22;16337;59.536;13.468;2023-03-08T01:39:53;-5.90;99.90
29341;DHT22;16337;59.536;13.468;2023-03-08T01:42:18;-5.90;99.90
29341;DHT22;16337;59.536;13.468;2023-03-08T01:47:23;-6.00;99.90
29341;DHT22;16337;59.536;13.468;2023-03-08T01:49:49;-6.00;99.90
29341;DHT22;16337;59.536;13.468;2023-03-08T01:52:20;-6.00;99.90
29341;DHT22;16337;59.536;13.468;2023-03-08T01:54:52;-6.00;99.90
29341;DHT22;16337;59.536;13.468;2023-03-08T01:57:35;-6.10;99.90
29341;DHT22;16337;59.536;13.468;2023-03-08T02:00:06;-6.10;99.90
29341;DHT22;16337;59.536;13.468;2023-03-08T02:02:57;-6.20;99.90
29341;DHT22;16337;59.536;13.468;2023-03-08T02:05:24;-6.30;99.90
29341;DHT22;16337;59.536;13.468;2023-03-08T02:07:50;-6.30;99.90
29341;DHT22;16337;59.536;13.468;2023-03-08T02:10:17;-6.30;99.90
29341;DHT22;16337;59.536;13.468;2023-03-08T02:12:44;-6.30;99.90
29341;DHT22;16337;59.536;13.468;2023-03-08T02:15:13;-6.40;99.90
29341;DHT22;16337;59.536;13.468;2023-03-08T02:17:41;-6.40;99.90
29341;DHT22;16337;59.536;13.468;2023-03-08T02:20:16;-6.40;99.90
29341;DHT22;16337;59.536;13.468;2023-03-08T02:22:44;-6.50;99.90
29341;DHT22;16337;59.536;13.468;2023-03-08T02:25:21;-6.60;99.90
29341;DHT22;16337;59.536;13.468;2023-03-08T02:27:48;-6.60;99.90
29341;DHT22;16337;59.536;13.468;2023-03-08T02:30:17;-6.60;99.90
29341;DHT22;16337;59.536;13.468;2023-03-08T02:32:46;-6.60;99.90
29341;DHT22;16337;59.536;13.468;2023-03-08T02:35:12;-6.70;99.90
29341;DHT22;16337;59.536;13.468;2023-03-08T02:37:38;-6.70;99.90
29341;DHT22;16337;59.536;13.468;2023-03-08T02:40:08;-6.70;99.90
29341;DHT22;16337;59.536;13.468;2023-03-08T02:42:37;-6.70;99.90
29341;DHT22;16337;59.536;13.468;2023-03-08T02:45:03;-6.70;99.90
29341;DHT22;16337;59.536;13.468;2023-03-08T02:47:29;-6.80;99.90
29341;DHT22;16337;59.536;13.468;2023-03-08T02:49:55;-6.80;99.90
29341;DHT22;16337;59.536;13.468;2023-03-08T02:52:21;-6.80;99.90
29341;DHT22;16337;59.536;13.468;2023-03-08T02:54:49;-6.90;99.90
29341;DHT22;16337;59.536;13.468;2023-03-08T02:57:15;-6.90;99.90
29341;DHT22;16337;59.536;13.468;2023-03-08T02:59:41;-6.90;99.90
29341;DHT22;16337;59.536;13.468;2023-03-08T03:02:07;-6.90;99.90
29341;DHT22;16337;59.536;13.468;2023-03-08T03:04:33;-6.90;99.90
29341;DHT22;16337;59.536;13.468;2023-03-08T03:06:59;-6.90;99.90
29341;DHT22;16337;59.536;13.468;2023-03-08T03:09:25;-7.00;99.90
29341;DHT22;16337;59.536;13.468;2023-03-08T03:11:51;-7.00;99.90
29341;DHT22;16337;59.536;13.468;2023-03-08T03:14:17;-7.00;99.90
29341;DHT22;16337;59.536;13.468;2023-03-08T03:16:43;-7.10;99.90
29341;DHT22;16337;59.536;13.468;2023-03-08T03:19:09;-7.10;99.90
29341;DHT22;16337;59.536;13.468;2023-03-08T03:21:35;-7.10;99.90
29341;DHT22;16337;59.536;13.468;2023-03-08T03:24:06;-7.20;99.90
29341;DHT22;16337;59.536;13.468;2023-03-08T03:26:34;-7.10;99.90
29341;DHT22;16337;59.536;13.468;2023-03-08T03:29:00;-7.10;99.90
29341;DHT22;16337;59.536;13.468;2023-03-08T03:31:26;-7.20;99.90
29341;DHT22;16337;59.536;13.468;2023-03-08T03:33:52;-7.30;99.90
29341;DHT22;16337;59.536;13.468;2023-03-08T03:36:20;-7.30;99.90
29341;DHT22;16337;59.536;13.468;2023-03-08T03:38:46;-7.30;99.90
29341;DHT22;16337;59.536;13.468;2023-03-08T03:41:15;-7.30;99.90
29341;DHT22;16337;59.536;13.468;2023-03-08T03:43:41;-7.40;99.90
29341;DHT22;16337;59.536;13.468;2023-03-08T03:46:11;-7.40;99.90
29341;DHT22;16337;59.536;13.468;2023-03-08T03:48:37;-7.40;99.90
29341;DHT22;16337;59.536;13.468;2023-03-08T03:51:06;-7.40;99.90
29341;DHT22;16337;59.536;13.468;2023-03-08T03:53:33;-7.50;99.90
29341;DHT22;16337;59.536;13.468;2023-03-08T03:58:29;-7.60;99.90
29341;DHT22;16337;59.536;13.468;2023-03-08T04:00:58;-7.60;99.90
29341;DHT22;16337;59.536;13.468;2023-03-08T04:03:24;-7.60;99.90
29341;DHT22;16337;59.536;13.468;2023-03-08T04:05:50;-7.60;99.90
29341;DHT22;16337;59.536;13.468;2023-03-08T04:08:15;-7.60;99.90
29341;DHT22;16337;59.536;13.468;2023-03-08T04:10:41;-7.70;99.90
29341;DHT22;16337;59.536;13.468;2023-03-08T04:13:09;-7.70;99.90
29341;DHT22;16337;59.536;13.468;2023-03-08T04:15:35;-7.70;99.90
29341;DHT22;16337;59.536;13.468;2023-03-08T04:18:00;-7.80;99.90
29341;DHT22;16337;59.536;13.468;2023-03-08T04:20:26;-7.80;99.90
29341;DHT22;16337;59.536;13.468;2023-03-08T04:22:52;-7.80;99.90
29341;DHT22;16337;59.536;13.468;2023-03-08T04:25:17;-7.90;99.90
29341;DHT22;16337;59.536;13.468;2023-03-08T04:27:46;-7.90;99.90
29341;DHT22;16337;59.536;13.468;2023-03-08T04:30:12;-8.00;99.90
29341;DHT22;16337;59.536;13.468;2023-03-08T04:32:41;-8.00;99.90
29341;DHT22;16337;59.536;13.468;2023-03-08T04:35:07;-8.00;99.90
29341;DHT22;16337;59.536;13.468;2023-03-08T04:37:33;-8.00;99.90
29341;DHT22;16337;59.536;13.468;2023-03-08T04:40:00;-8.10;99.90
29341;DHT22;16337;59.536;13.468;2023-03-08T04:42:26;-8.10;99.90
29341;DHT22;16337;59.536;13.468;2023-03-08T04:44:51;-8.10;99.90
29341;DHT22;16337;59.536;13.468;2023-03-08T04:47:17;-8.10;99.90
29341;DHT22;16337;59.536;13.468;2023-03-08T04:49:43;-8.20;99.90
29341;DHT22;16337;59.536;13.468;2023-03-08T04:52:08;-8.20;99.90
29341;DHT22;16337;59.536;13.468;2023-03-08T04:54:34;-8.30;99.90
29341;DHT22;16337;59.536;13.468;2023-03-08T04:57:00;-8.30;99.90
29341;DHT22;16337;59.536;13.468;2023-03-08T04:59:26;-8.30;99.90
29341;DHT22;16337;59.536;13.468;2023-03-08T05:01:52;-8.40;99.90
29341;DHT22;16337;59.536;13.468;2023-03-08T05:04:17;-8.40;99.90
29341;DHT22;16337;59.536;13.468;2023-03-08T05:06:43;-8.40;99.90
29341;DHT22;16337;59.536;13.468;2023-03-08T05:09:09;-8.50;99.90
29341;DHT22;16337;59.536;13.468;2023-03-08T05:11:34;-8.50;99.90
29341;DHT22;16337;59.536;13.468;2023-03-08T05:14:00;-8.50;99.90
29341;DHT22;16337;59.536;13.468;2023-03-08T05:16:26;-8.50;99.90
29341;DHT22;16337;59.536;13.468;2023-03-08T05:18:52;-8.50;99.90
29341;DHT22;16337;59.536;13.468;2023-03-08T05:21:20;-8.50;99.90
29341;DHT22;16337;59.536;13.468;2023-03-08T05:23:46;-8.60;99.90
29341;DHT22;16337;59.536;13.468;2023-03-08T05:26:14;-8.60;99.90
29341;DHT22;16337;59.536;13.468;2023-03-08T05:28:44;-8.70;99.90
29341;DHT22;16337;59.536;13.468;2023-03-08T05:31:13;-8.80;99.90
29341;DHT22;16337;59.536;13.468;2023-03-08T05:33:39;-8.80;99.90
29341;DHT22;16337;59.536;13.468;2023-03-08T05:36:14;-8.80;99.90
29341;DHT22;16337;59.536;13.468;2023-03-08T05:38:43;-8.80;99.90
29341;DHT22;16337;59.536;13.468;2023-03-08T05:41:12;-8.80;99.90
29341;DHT22;16337;59.536;13.468;2023-03-08T05:43:38;-8.80;99.90
29341;DHT22;16337;59.536;13.468;2023-03-08T05:46:07;-8.80;99.90
29341;DHT22;16337;59.536;13.468;2023-03-08T05:48:34;-8.90;99.90
29341;DHT22;16337;59.536;13.468;2023-03-08T05:51:08;-8.90;99.90
29341;DHT22;16337;59.536;13.468;2023-03-08T05:53:34;-8.80;99.90
29341;DHT22;16337;59.536;13.468;2023-03-08T05:56:15;-8.80;99.90
29341;DHT22;16337;59.536;13.468;2023-03-08T05:58:42;-8.80;99.90
29341;DHT22;16337;59.536;13.468;2023-03-08T06:01:16;-8.80;99.90
29341;DHT22;16337;59.536;13.468;2023-03-08T06:03:43;-8.90;99.90
29341;DHT22;16337;59.536;13.468;2023-03-08T06:06:09;-8.80;99.90
29341;DHT22;16337;59.536;13.468;2023-03-08T06:08:35;-8.80;99.90
29341;DHT22;16337;59.536;13.468;2023-03-08T06:11:01;-8.80;99.90
29341;DHT22;16337;59.536;13.468;2023-03-08T06:13:27;-8.80;99.90
29341;DHT22;16337;59.536;13.468;2023-03-08T06:15:57;-8.80;99.90
29341;DHT22;16337;59.536;13.468;2023-03-08T06:18:24;-8.80;99.90
29341;DHT22;16337;59.536;13.468;2023-03-08T06:20:58;-8.80;99.90
29341;DHT22;16337;59.536;13.468;2023-03-08T06:23:25;-8.90;99.90
29341;DHT22;16337;59.536;13.468;2023-03-08T06:25:51;-8.80;99.90
29341;DHT22;16337;59.536;13.468;2023-03-08T06:28:18;-8.80;99.90
29341;DHT22;16337;59.536;13.468;2023-03-08T06:30:46;-8.80;99.90
29341;DHT22;16337;59.536;13.468;2023-03-08T06:33:14;-8.70;99.90
29341;DHT22;16337;59.536;13.468;2023-03-08T06:35:41;-8.70;99.90
29341;DHT22;16337;59.536;13.468;2023-03-08T06:38:07;-8.60;99.90
29341;DHT22;16337;59.536;13.468;2023-03-08T06:40:33;-8.70;99.90
29341;DHT22;16337;59.536;13.468;2023-03-08T06:42:59;-8.60;99.90
29341;DHT22;16337;59.536;13.468;2023-03-08T06:45:31;-8.50;99.90
29341;DHT22;16337;59.536;13.468;2023-03-08T06:47:58;-8.50;99.90
29341;DHT22;16337;59.536;13.468;2023-03-08T06:50:24;-8.40;99.90
29341;DHT22;16337;59.536;13.468;2023-03-08T06:52:50;-8.30;99.90
29341;DHT22;16337;59.536;13.468;2023-03-08T06:55:16;-8.20;99.90
29341;DHT22;16337;59.536;13.468;2023-03-08T06:57:43;-8.20;99.90
29341;DHT22;16337;59.536;13.468;2023-03-08T07:00:12;-8.20;99.90
29341;DHT22;16337;59.536;13.468;2023-03-08T07:02:39;-8.10;99.90
29341;DHT22;16337;59.536;13.468;2023-03-08T07:05:05;-8.00;99.90
29341;DHT22;16337;59.536;13.468;2023-03-08T07:07:30;-7.80;99.90
29341;DHT22;16337;59.536;13.468;2023-03-08T07:09:57;-7.70;99.90
29341;DHT22;16337;59.536;13.468;2023-03-08T07:12:23;-7.60;99.90
29341;DHT22;16337;59.536;13.468;2023-03-08T07:14:51;-7.50;99.90
29341;DHT22;16337;59.536;13.468;2023-03-08T07:17:18;-7.40;99.90
29341;DHT22;16337;59.536;13.468;2023-03-08T07:19:47;-7.10;99.90
29341;DHT22;16337;59.536;13.468;2023-03-08T07:22:12;-7.10;99.90
29341;DHT22;16337;59.536;13.468;2023-03-08T07:24:38;-7.00;99.90
29341;DHT22;16337;59.536;13.468;2023-03-08T07:27:04;-6.90;99.90
29341;DHT22;16337;59.536;13.468;2023-03-08T07:29:30;-6.90;99.90
29341;DHT22;16337;59.536;13.468;2023-03-08T07:31:55;-6.80;99.90
29341;DHT22;16337;59.536;13.468;2023-03-08T07:34:24;-6.70;99.90
29341;DHT22;16337;59.536;13.468;2023-03-08T07:36:50;-6.70;99.90
29341;DHT22;16337;59.536;13.468;2023-03-08T07:39:15;-6.60;99.90
29341;DHT22;16337;59.536;13.468;2023-03-08T07:41:41;-6.50;99.90
29341;DHT22;16337;59.536;13.468;2023-03-08T07:44:07;-6.40;99.90
29341;DHT22;16337;59.536;13.468;2023-03-08T07:46:33;-6.40;99.90
29341;DHT22;16337;59.536;13.468;2023-03-08T07:48:59;-6.40;99.90
29341;DHT22;16337;59.536;13.468;2023-03-08T07:51:25;-6.30;99.90
29341;DHT22;16337;59.536;13.468;2023-03-08T07:53:51;-6.20;99.90
29341;DHT22;16337;59.536;13.468;2023-03-08T07:56:17;-6.10;99.90
29341;DHT22;16337;59.536;13.468;2023-03-08T07:58:43;-5.90;99.90
29341;DHT22;16337;59.536;13.468;2023-03-08T08:01:12;-5.70;99.90
29341;DHT22;16337;59.536;13.468;2023-03-08T08:03:38;-5.70;99.90
29341;DHT22;16337;59.536;13.468;2023-03-08T08:06:04;-5.60;99.90
29341;DHT22;16337;59.536;13.468;2023-03-08T08:08:33;-5.50;99.90
29341;DHT22;16337;59.536;13.468;2023-03-08T08:11:00;-5.40;99.90
29341;DHT22;16337;59.536;13.468;2023-03-08T08:13:25;-5.40;99.90
29341;DHT22;16337;59.536;13.468;2023-03-08T08:16:01;-5.40;99.90
29341;DHT22;16337;59.536;13.468;2023-03-08T08:18:27;-5.40;99.90
29341;DHT22;16337;59.536;13.468;2023-03-08T08:21:00;-5.30;99.90
29341;DHT22;16337;59.536;13.468;2023-03-08T08:23:27;-5.20;99.90
29341;DHT22;16337;59.536;13.468;2023-03-08T08:25:53;-5.20;99.90
29341;DHT22;16337;59.536;13.468;2023-03-08T08:28:19;-5.30;99.90
29341;DHT22;16337;59.536;13.468;2023-03-08T08:31:01;-5.20;99.90
29341;DHT22;16337;59.536;13.468;2023-03-08T08:33:28;-5.20;99.90
29341;DHT22;16337;59.536;13.468;2023-03-08T08:35:54;-5.20;99.90
29341;DHT22;16337;59.536;13.468;2023-03-08T08:38:20;-5.10;99.90
29341;DHT22;16337;59.536;13.468;2023-03-08T08:40:46;-4.90;99.90
29341;DHT22;16337;59.536;13.468;2023-03-08T08:43:12;-4.90;99.90
29341;DHT22;16337;59.536;13.468;2023-03-08T08:45:46;-4.70;99.90
29341;DHT22;16337;59.536;13.468;2023-03-08T08:48:12;-4.70;99.90
29341;DHT22;16337;59.536;13.468;2023-03-08T08:50:39;-4.60;99.90
29341;DHT22;16337;59.536;13.468;2023-03-08T08:53:07;-4.60;99.90
29341;DHT22;16337;59.536;13.468;2023-03-08T08:55:33;-4.40;99.90
29341;DHT22;16337;59.536;13.468;2023-03-08T08:58:08;-4.00;99.90
29341;DHT22;16337;59.536;13.468;2023-03-08T09:00:37;-3.60;99.90
29341;DHT22;16337;59.536;13.468;2023-03-08T09:03:04;-3.40;99.90
29341;DHT22;16337;59.536;13.468;2023-03-08T09:05:36;-3.10;99.90
29341;DHT22;16337;59.536;13.468;2023-03-08T09:08:03;-2.70;99.90
29341;DHT22;16337;59.536;13.468;2023-03-08T09:10:31;-2.50;99.90
29341;DHT22;16337;59.536;13.468;2023-03-08T09:13:00;-2.50;99.90
29341;DHT22;16337;59.536;13.468;2023-03-08T09:15:26;-2.40;99.90
29341;DHT22;16337;59.536;13.468;2023-03-08T09:17:52;-2.30;99.90
29341;DHT22;16337;59.536;13.468;2023-03-08T09:20:18;-2.10;99.90
29341;DHT22;16337;59.536;13.468;2023-03-08T09:22:44;-2.20;99.90
29341;DHT22;16337;59.536;13.468;2023-03-08T09:25:11;-2.10;99.90
29341;DHT22;16337;59.536;13.468;2023-03-08T09:27:38;-2.30;99.90
29341;DHT22;16337;59.536;13.468;2023-03-08T09:30:10;-2.40;99.90
29341;DHT22;16337;59.536;13.468;2023-03-08T09:32:37;-2.40;99.90
29341;DHT22;16337;59.536;13.468;2023-03-08T09:35:06;-2.30;99.90
29341;DHT22;16337;59.536;13.468;2023-03-08T09:37:33;-2.10;99.90
29341;DHT22;16337;59.536;13.468;2023-03-08T09:39:59;-2.20;99.90
29341;DHT22;16337;59.536;13.468;2023-03-08T09:42:33;-2.10;99.90
29341;DHT22;16337;59.536;13.468;2023-03-08T09:45:27;-2.00;99.90
29341;DHT22;16337;59.536;13.468;2023-03-08T09:48:41;-1.70;99.90
29341;DHT22;16337;59.536;13.468;2023-03-08T09:50:53;-1.50;99.90
29341;DHT22;16337;59.536;13.468;2023-03-08T09:56:32;-1.50;99.90
29341;DHT22;16337;59.536;13.468;2023-03-08T10:04:52;-0.40;99.70
29341;DHT22;16337;59.536;13.468;2023-03-08T10:07:26;-0.20;98.20
29341;DHT22;16337;59.536;13.468;2023-03-08T10:13:36;0.00;96.90
29341;DHT22;16337;59.536;13.468;2023-03-08T10:16:26;-0.10;96.20
29341;DHT22;16337;59.536;13.468;2023-03-08T10:21:25;0.50;95.40
29341;DHT22;16337;59.536;13.468;2023-03-08T10:26:43;0.60;93.70
29341;DHT22;16337;59.536;13.468;2023-03-08T10:29:13;0.90;94.60
29341;DHT22;16337;59.536;13.468;2023-03-08T10:31:42;1.40;94.90
29341;DHT22;16337;59.536;13.468;2023-03-08T10:34:11;1.60;92.20
29341;DHT22;16337;59.536;13.468;2023-03-08T10:36:58;1.70;91.40
29341;DHT22;16337;59.536;13.468;2023-03-08T10:39:28;2.10;90.80
29341;DHT22;16337;59.536;13.468;2023-03-08T10:41:58;2.00;87.30
29341;DHT22;16337;59.536;13.468;2023-03-08T10:44:44;2.00;89.40
29341;DHT22;16337;59.536;13.468;2023-03-08T10:47:33;1.90;85.50
29341;DHT22;16337;59.536;13.468;2023-03-08T10:52:43;1.90;82.60
29341;DHT22;16337;59.536;13.468;2023-03-08T10:55:12;2.10;83.40
29341;DHT22;16337;59.536;13.468;2023-03-08T10:57:50;1.80;83.80
29341;DHT22;16337;59.536;13.468;2023-03-08T11:03:17;2.40;84.80
29341;DHT22;16337;59.536;13.468;2023-03-08T11:08:32;3.20;82.80
29341;DHT22;16337;59.536;13.468;2023-03-08T11:11:02;3.50;82.10
29341;DHT22;16337;59.536;13.468;2023-03-08T11:13:33;3.30;80.20
29341;DHT22;16337;59.536;13.468;2023-03-08T11:16:24;3.80;80.50
29341;DHT22;16337;59.536;13.468;2023-03-08T11:40:49;5.70;69.30
29341;DHT22;16337;59.536;13.468;2023-03-08T11:45:54;4.80;68.90
29341;DHT22;16337;59.536;13.468;2023-03-08T11:51:32;5.10;73.20
29341;DHT22;16337;59.536;13.468;2023-03-08T11:56:55;5.50;64.80
29341;DHT22;16337;59.536;13.468;2023-03-08T12:04:41;5.80;62.80
29341;DHT22;16337;59.536;13.468;2023-03-08T12:07:16;5.60;63.20
29341;DHT22;16337;59.536;13.468;2023-03-08T12:13:05;6.30;65.50
29341;DHT22;16337;59.536;13.468;2023-03-08T12:20:43;6.80;60.80
29341;DHT22;16337;59.536;13.468;2023-03-08T12:23:44;6.40;57.20
29341;DHT22;16337;59.536;13.468;2023-03-08T12:26:22;5.60;57.70
29341;DHT22;16337;59.536;13.468;2023-03-08T12:28:57;5.50;59.10
29341;DHT22;16337;59.536;13.468;2023-03-08T12:31:43;5.70;58.10
29341;DHT22;16337;59.536;13.468;2023-03-08T12:34:45;5.40;52.90
29341;DHT22;16337;59.536;13.468;2023-03-08T12:37:21;5.00;53.10
29341;DHT22;16337;59.536;13.468;2023-03-08T12:40:00;4.60;50.90
29341;DHT22;16337;59.536;13.468;2023-03-08T12:42:37;4.30;51.90
29341;DHT22;16337;59.536;13.468;2023-03-08T12:48:21;4.60;54.30
29341;DHT22;16337;59.536;13.468;2023-03-08T12:58:46;4.00;50.90
29341;DHT22;16337;59.536;13.468;2023-03-08T13:01:29;4.10;52.10
29341;DHT22;16337;59.536;13.468;2023-03-08T13:03:56;4.10;52.30
29341;DHT22;16337;59.536;13.468;2023-03-08T13:09:13;4.50;53.00
29341;DHT22;16337;59.536;13.468;2023-03-08T13:11:46;4.10;53.30
29341;DHT22;16337;59.536;13.468;2023-03-08T13:14:25;3.90;51.20
29341;DHT22;16337;59.536;13.468;2023-03-08T13:16:51;3.90;55.40
29341;DHT22;16337;59.536;13.468;2023-03-08T13:19:27;4.00;54.70
29341;DHT22;16337;59.536;13.468;2023-03-08T13:22:08;4.00;49.20
29341;DHT22;16337;59.536;13.468;2023-03-08T13:27:22;3.60;51.40
29341;DHT22;16337;59.536;13.468;2023-03-08T13:29:52;3.70;53.20
29341;DHT22;16337;59.536;13.468;2023-03-08T13:32:22;3.60;49.50
29341;DHT22;16337;59.536;13.468;2023-03-08T13:35:00;3.60;51.10
29341;DHT22;16337;59.536;13.468;2023-03-08T13:37:28;3.90;53.30
29341;DHT22;16337;59.536;13.468;2023-03-08T13:39:59;3.50;47.60
29341;DHT22;16337;59.536;13.468;2023-03-08T13:42:27;3.40;52.50
29341;DHT22;16337;59.536;13.468;2023-03-08T13:45:05;3.30;49.80
29341;DHT22;16337;59.536;13.468;2023-03-08T13:47:36;3.10;50.90
29341;DHT22;16337;59.536;13.468;2023-03-08T13:50:04;2.80;50.30
29341;DHT22;16337;59.536;13.468;2023-03-08T13:52:32;3.00;52.60
29341;DHT22;16337;59.536;13.468;2023-03-08T13:55:04;2.90;52.20
29341;DHT22;16337;59.536;13.468;2023-03-08T13:57:33;2.50;51.30
29341;DHT22;16337;59.536;13.468;2023-03-08T14:00:55;2.10;47.80
29341;DHT22;16337;59.536;13.468;2023-03-08T14:03:18;2.00;52.70
29341;DHT22;16337;59.536;13.468;2023-03-08T14:05:44;1.70;51.30
29341;DHT22;16337;59.536;13.468;2023-03-08T14:08:19;1.70;51.80
29341;DHT22;16337;59.536;13.468;2023-03-08T14:11:06;1.50;53.40
29341;DHT22;16337;59.536;13.468;2023-03-08T14:13:37;1.40;54.90
29341;DHT22;16337;59.536;13.468;2023-03-08T14:16:07;1.10;51.80
29341;DHT22;16337;59.536;13.468;2023-03-08T14:18:39;0.90;51.60
29341;DHT22;16337;59.536;13.468;2023-03-08T14:21:20;0.80;52.00
29341;DHT22;16337;59.536;13.468;2023-03-08T14:23:49;0.90;53.60
29341;DHT22;16337;59.536;13.468;2023-03-08T14:26:38;0.90;52.60
29341;DHT22;16337;59.536;13.468;2023-03-08T14:31:34;0.60;52.80
29341;DHT22;16337;59.536;13.468;2023-03-08T14:34:01;0.50;53.70
29341;DHT22;16337;59.536;13.468;2023-03-08T14:36:29;0.30;56.00
29341;DHT22;16337;59.536;13.468;2023-03-08T14:38:56;0.20;60.50
29341;DHT22;16337;59.536;13.468;2023-03-08T14:41:34;0.00;58.80
29341;DHT22;16337;59.536;13.468;2023-03-08T14:44:01;-0.20;59.40
29341;DHT22;16337;59.536;13.468;2023-03-08T14:46:30;-0.30;58.50
29341;DHT22;16337;59.536;13.468;2023-03-08T14:49:21;-0.30;54.50
29341;DHT22;16337;59.536;13.468;2023-03-08T14:51:47;-0.30;58.10
29341;DHT22;16337;59.536;13.468;2023-03-08T14:54:32;-0.40;56.90
29341;DHT22;16337;59.536;13.468;2023-03-08T14:57:18;-0.50;57.00
29341;DHT22;16337;59.536;13.468;2023-03-08T14:59:48;-0.50;56.30
29341;DHT22;16337;59.536;13.468;2023-03-08T15:02:16;-0.60;57.60
29341;DHT22;16337;59.536;13.468;2023-03-08T15:04:42;-0.70;57.40
29341;DHT22;16337;59.536;13.468;2023-03-08T15:07:30;-0.70;64.00
29341;DHT22;16337;59.536;13.468;2023-03-08T15:09:58;-0.80;68.80
29341;DHT22;16337;59.536;13.468;2023-03-08T15:12:26;-0.90;66.50
29341;DHT22;16337;59.536;13.468;2023-03-08T15:14:52;-1.10;66.30
29341;DHT22;16337;59.536;13.468;2023-03-08T15:17:18;-1.30;67.00
29341;DHT22;16337;59.536;13.468;2023-03-08T15:19:44;-1.40;71.80
29341;DHT22;16337;59.536;13.468;2023-03-08T15:22:11;-1.50;67.80
29341;DHT22;16337;59.536;13.468;2023-03-08T15:24:38;-1.70;72.00
29341;DHT22;16337;59.536;13.468;2023-03-08T15:27:04;-1.60;63.70
29341;DHT22;16337;59.536;13.468;2023-03-08T15:29:32;-1.60;64.80
29341;DHT22;16337;59.536;13.468;2023-03-08T15:31:58;-1.50;64.30
29341;DHT22;16337;59.536;13.468;2023-03-08T15:34:25;-1.60;71.70
29341;DHT22;16337;59.536;13.468;2023-03-08T15:36:52;-1.60;66.50
29341;DHT22;16337;59.536;13.468;2023-03-08T15:39:18;-1.60;65.30
29341;DHT22;16337;59.536;13.468;2023-03-08T15:41:45;-1.60;68.30
29341;DHT22;16337;59.536;13.468;2023-03-08T15:44:11;-1.70;69.90
29341;DHT22;16337;59.536;13.468;2023-03-08T15:46:37;-1.70;67.50
29341;DHT22;16337;59.536;13.468;2023-03-08T15:49:04;-1.80;69.80
29341;DHT22;16337;59.536;13.468;2023-03-08T15:51:35;-1.80;70.40
29341;DHT22;16337;59.536;13.468;2023-03-08T15:54:01;-1.90;74.80
29341;DHT22;16337;59.536;13.468;2023-03-08T15:56:27;-2.10;78.80
29341;DHT22;16337;59.536;13.468;2023-03-08T15:58:54;-2.30;77.90
29341;DHT22;16337;59.536;13.468;2023-03-08T16:01:21;-2.30;73.10
29341;DHT22;16337;59.536;13.468;2023-03-08T16:03:51;-2.20;71.60
29341;DHT22;16337;59.536;13.468;2023-03-08T16:06:16;-2.20;72.60
29341;DHT22;16337;59.536;13.468;2023-03-08T16:08:43;-2.30;75.30
29341;DHT22;16337;59.536;13.468;2023-03-08T16:11:11;-2.40;78.40
29341;DHT22;16337;59.536;13.468;2023-03-08T16:13:37;-2.50;82.00
29341;DHT22;16337;59.536;13.468;2023-03-08T16:16:03;-2.60;81.70
29341;DHT22;16337;59.536;13.468;2023-03-08T16:18:30;-2.80;83.40
29341;DHT22;16337;59.536;13.468;2023-03-08T16:20:58;-2.90;85.20
29341;DHT22;16337;59.536;13.468;2023-03-08T16:23:24;-3.10;83.30
29341;DHT22;16337;59.536;13.468;2023-03-08T16:26:02;-3.20;82.80
29341;DHT22;16337;59.536;13.468;2023-03-08T16:28:28;-3.30;88.30
29341;DHT22;16337;59.536;13.468;2023-03-08T16:30:57;-3.40;90.90
29341;DHT22;16337;59.536;13.468;2023-03-08T16:33:25;-3.60;91.30
29341;DHT22;16337;59.536;13.468;2023-03-08T16:35:52;-3.70;91.60
29341;DHT22;16337;59.536;13.468;2023-03-08T16:38:19;-3.80;92.40
29341;DHT22;16337;59.536;13.468;2023-03-08T16:40:45;-4.00;92.70
29341;DHT22;16337;59.536;13.468;2023-03-08T16:43:11;-4.10;93.40
29341;DHT22;16337;59.536;13.468;2023-03-08T16:45:51;-4.20;92.30
29341;DHT22;16337;59.536;13.468;2023-03-08T16:48:17;-4.20;90.70
29341;DHT22;16337;59.536;13.468;2023-03-08T16:50:49;-4.30;89.90
29341;DHT22;16337;59.536;13.468;2023-03-08T16:53:15;-4.40;92.60
29341;DHT22;16337;59.536;13.468;2023-03-08T16:55:41;-4.50;93.10
29341;DHT22;16337;59.536;13.468;2023-03-08T16:58:07;-4.50;91.50
29341;DHT22;16337;59.536;13.468;2023-03-08T17:00:33;-4.60;92.20
29341;DHT22;16337;59.536;13.468;2023-03-08T17:03:00;-4.60;91.60
29341;DHT22;16337;59.536;13.468;2023-03-08T17:05:25;-4.70;92.10
29341;DHT22;16337;59.536;13.468;2023-03-08T17:07:51;-4.80;92.60